Stations météo

réclame
Mon MeteoGroup
Leuchtturm Kiel, Allemagne (10044): Température de l'air & dewpoint: 16.10.2017 01:00:00 - 22.10.2017 01:00:00 (CEST)Leuchtturm Kiel, Allemagne (10044): Vitesse du vent & gusts: 16.10.2017 01:00:00 - 22.10.2017 01:00:00 (CEST)Leuchtturm Kiel, Allemagne (10044): Direction du vent: 16.10.2017 01:00:00 - 22.10.2017 01:00:00 (CEST)Leuchtturm Kiel, Allemagne (10044): reduced air pressure: 16.10.2017 01:00:00 - 22.10.2017 01:00:00 (CEST)Leuchtturm Kiel, Allemagne (10044): Ensoleillement: 16.10.2017 01:00:00 - 22.10.2017 01:00:00 (CEST)
Date & Time tt [°C] td [°C] ff [km/h] ff [knt] fx [km/h] fx [knt] dd ppp [hPa] sd [min]
22.10.2017 01:00:00 12,7 11,9 25 14 - - S 1009,3 0
22.10.2017 00:00:00 12,5 11,8 18 10 - - S 1009,4 0
21.10.2017 23:00:00 12,3 11,6 25 14 - - S 1009,8 0
21.10.2017 22:00:00 12,0 11,2 32 18 - - S 1010,0 0
21.10.2017 21:00:00 11,7 10,8 29 16 - - SSE 1009,9 0
21.10.2017 20:00:00 11,8 10,3 32 18 - - SSE 1010,4 0
21.10.2017 19:00:00 13,0 9,7 29 16 - - SE 1010,5 0
21.10.2017 18:00:00 13,2 9,6 29 16 - - SE 1010,5 0
21.10.2017 17:00:00 13,2 9,5 25 14 - - SE 1011,0 0
21.10.2017 16:00:00 13,1 9,9 25 14 - - SSE 1011,0 0
21.10.2017 15:00:00 12,8 10,6 22 12 - - SE 1011,2 6
21.10.2017 14:00:00 12,6 10,2 22 12 - - SSE 1011,5 0
21.10.2017 13:00:00 12,6 10,2 18 10 - - S 1012,0 6
21.10.2017 12:00:00 12,0 10,1 14 8 - - S 1012,1 24
21.10.2017 11:00:00 11,8 10,1 22 12 - - S 1012,2 12
21.10.2017 10:00:00 11,5 10,2 18 10 - - S 1012,1 0
21.10.2017 09:00:00 11,6 10,4 18 10 - - S 1011,9 0
21.10.2017 08:00:00 11,7 10,6 18 10 - - S 1011,4 0
21.10.2017 07:00:00 11,8 10,4 18 10 - - S 1011,4 0
21.10.2017 06:00:00 11,9 10,4 22 12 - - S 1011,1 0
21.10.2017 05:00:00 12,0 10,5 18 10 - - S 1011,1 0
21.10.2017 04:00:00 12,3 10,7 22 12 - - S 1010,9 0
21.10.2017 03:00:00 12,2 10,8 22 12 - - S 1010,9 0
21.10.2017 02:00:00 12,3 10,7 22 12 - - S 1010,9 0
21.10.2017 01:00:00 12,5 10,8 14 8 - - SSE 1011,0 0
21.10.2017 00:00:00 12,8 11,1 18 10 - - S 1010,8 0
20.10.2017 23:00:00 13,0 11,4 25 14 - - SW 1010,7 0
20.10.2017 22:00:00 13,3 11,6 29 16 - - S 1010,3 0
20.10.2017 21:00:00 13,4 11,7 29 16 - - S 1010,1 0
20.10.2017 20:00:00 13,7 12,3 22 12 - - SSE 1009,9 0
20.10.2017 19:00:00 13,8 12,2 25 14 - - SSE 1009,7 0
20.10.2017 18:00:00 13,2 12,3 32 18 - - SE 1009,2 0
20.10.2017 17:00:00 13,3 12,0 40 21 - - ESE 1009,0 0
20.10.2017 16:00:00 13,4 12,1 43 23 47 25 E 1009,0 0
20.10.2017 15:00:00 13,7 11,8 22 12 - - ESE 1010,2 0
20.10.2017 14:00:00 14,0 12,0 14 8 - - SE 1010,9 0
20.10.2017 13:00:00 13,9 12,1 4 2 - - SSE 1010,8 0
20.10.2017 12:00:00 13,0 12,2 22 12 - - SSE 1010,6 0
20.10.2017 11:00:00 12,4 11,7 32 18 - - ESE 1009,6 0
20.10.2017 10:00:00 12,2 11,5 22 12 - - ESE 1010,1 0
20.10.2017 09:00:00 12,0 11,4 18 10 - - SE 1010,0 0
20.10.2017 08:00:00 12,0 11,4 18 10 - - SE 1009,8 0
20.10.2017 07:00:00 12,0 11,7 18 10 - - SE 1010,3 0
20.10.2017 06:00:00 11,7 11,7 18 10 - - SE 1010,4 0
20.10.2017 05:00:00 11,7 11,3 18 10 - - SE 1010,6 0
20.10.2017 04:00:00 12,1 11,5 25 14 - - S 1011,1 0
20.10.2017 03:00:00 12,5 11,6 25 14 - - SE 1011,0 0
20.10.2017 02:00:00 12,8 11,8 32 18 - - ESE 1011,2 0
20.10.2017 01:00:00 13,0 11,8 36 19 - - ESE 1011,2 0
20.10.2017 00:00:00 13,2 11,7 36 19 - - ESE 1011,9 0
19.10.2017 23:00:00 13,3 11,7 36 19 - - ESE 1012,3 0
19.10.2017 22:00:00 13,6 11,7 40 21 - - ESE 1012,3 0
19.10.2017 21:00:00 13,5 12,2 40 21 47 25 E 1012,3 0
19.10.2017 20:00:00 13,4 12,1 40 21 - - E 1012,4 0
19.10.2017 19:00:00 13,4 11,8 40 21 50 27 E 1012,8 0
19.10.2017 18:00:00 13,4 11,7 43 23 47 25 E 1012,7 0
19.10.2017 17:00:00 13,3 11,6 40 21 - - E 1013,1 6
19.10.2017 16:00:00 13,0 11,5 40 21 47 25 E 1013,1 42
19.10.2017 15:00:00 12,8 11,4 40 21 - - E 1013,5 6
19.10.2017 14:00:00 12,9 11,2 36 19 - - E 1014,1 54
19.10.2017 13:00:00 12,9 11,1 29 16 - - E 1014,3 42
19.10.2017 12:00:00 12,8 11,1 29 16 - - E 1014,4 30
19.10.2017 11:00:00 12,5 10,8 29 16 - - ESE 1014,8 0
19.10.2017 10:00:00 12,5 10,7 32 18 - - ESE 1014,6 0
19.10.2017 09:00:00 12,7 10,7 32 18 - - ESE 1014,6 0
19.10.2017 08:00:00 12,9 10,9 32 18 - - ESE 1014,1 0
19.10.2017 07:00:00 12,9 10,8 32 18 - - E 1013,9 0
19.10.2017 06:00:00 13,0 11,0 29 16 - - ESE 1014,5 0
19.10.2017 05:00:00 13,1 11,2 25 14 - - E 1014,7 0
19.10.2017 04:00:00 12,9 11,4 25 14 - - E 1014,8 0
19.10.2017 03:00:00 13,0 11,2 25 14 - - E 1014,9 0
19.10.2017 02:00:00 13,1 10,8 22 12 - - E 1015,1 0
19.10.2017 01:00:00 13,2 11,1 18 10 - - E 1015,2 0
19.10.2017 00:00:00 13,2 11,2 18 10 - - E 1015,1 0
18.10.2017 23:00:00 13,2 11,1 18 10 - - ESE 1015,2 0
18.10.2017 22:00:00 13,3 11,3 14 8 - - ESE 1015,2 0
18.10.2017 21:00:00 13,4 11,0 14 8 - - E 1015,1 0
18.10.2017 20:00:00 13,3 11,2 14 8 - - E 1015,1 0
18.10.2017 19:00:00 13,5 10,8 14 8 - - E 1014,9 0
18.10.2017 18:00:00 13,7 10,6 11 6 - - E 1015,0 0
18.10.2017 17:00:00 14,2 9,7 7 4 - - NNE 1015,0 0
18.10.2017 16:00:00 14,6 9,6 0 0 - - SE 1015,0 18
18.10.2017 15:00:00 14,5 10,0 7 4 - - WSW 1015,1 60
18.10.2017 14:00:00 14,2 10,9 7 4 - - W 1015,2 60
18.10.2017 13:00:00 13,8 11,2 7 4 - - W 1015,7 60
18.10.2017 12:00:00 13,0 10,8 11 6 - - SW 1015,4 60
18.10.2017 11:00:00 12,0 10,8 18 10 - - SW 1015,6 24
18.10.2017 10:00:00 11,5 10,4 18 10 - - SW 1015,5 18
18.10.2017 09:00:00 10,9 10,0 22 12 - - SW 1015,2 6
18.10.2017 08:00:00 11,2 10,2 22 12 - - SW 1014,7 0
18.10.2017 07:00:00 11,5 10,4 25 14 - - SW 1014,6 0
18.10.2017 06:00:00 11,3 10,2 29 16 - - SW 1014,8 0
18.10.2017 05:00:00 11,5 10,3 29 16 - - SW 1014,9 0
18.10.2017 04:00:00 11,6 10,3 32 18 - - SW 1015,0 0
18.10.2017 03:00:00 11,9 10,3 32 18 - - SW 1015,1 0
18.10.2017 02:00:00 12,1 10,3 36 19 - - SW 1015,2 0
18.10.2017 01:00:00 12,3 10,4 40 21 47 25 SW 1015,3 0
18.10.2017 00:00:00 12,4 10,5 36 19 - - SSW 1015,5 0
17.10.2017 23:00:00 12,6 10,5 32 18 - - SW 1015,6 0
17.10.2017 22:00:00 12,7 10,4 32 18 - - SW 1015,9 0
17.10.2017 21:00:00 13,1 10,4 29 16 - - SW 1016,0 0
17.10.2017 20:00:00 13,3 10,1 29 16 - - SW 1016,1 0
17.10.2017 19:00:00 13,9 9,9 32 18 - - SW 1015,8 0
17.10.2017 18:00:00 14,2 9,8 32 18 47 25 SW 1015,7 0
17.10.2017 17:00:00 14,4 9,4 40 21 - - SW 1016,0 0
17.10.2017 16:00:00 14,7 9,3 43 23 58 31 SW 1016,2 0
17.10.2017 15:00:00 14,5 10,0 43 23 58 31 WSW 1016,9 0
17.10.2017 14:00:00 14,5 10,2 40 21 - - WSW 1017,4 0
17.10.2017 13:00:00 14,6 10,2 43 23 54 29 SW 1017,4 0
17.10.2017 12:00:00 14,3 10,6 40 21 50 27 SW 1017,6 0
17.10.2017 11:00:00 14,5 10,4 40 21 - - SW 1017,4 0
17.10.2017 10:00:00 14,8 10,6 36 19 - - SW 1017,6 0
17.10.2017 09:00:00 15,3 11,4 36 19 - - SW 1017,4 0
17.10.2017 08:00:00 15,6 12,4 29 16 - - SW 1017,0 0
17.10.2017 07:00:00 15,1 13,1 25 14 - - SSW 1016,9 0
17.10.2017 06:00:00 16,0 13,3 32 18 - - SSW 1016,9 0
17.10.2017 05:00:00 16,8 13,2 29 16 - - SSW 1017,0 0
17.10.2017 04:00:00 17,4 13,4 29 16 - - SSW 1017,2 0
17.10.2017 03:00:00 17,6 13,5 32 18 - - SSW 1017,4 0
17.10.2017 02:00:00 17,7 13,9 40 21 - - SSW 1017,5 0
17.10.2017 01:00:00 16,8 14,3 22 12 - - SSW 1017,9 0
17.10.2017 00:00:00 16,9 14,8 18 10 - - S 1018,1 0
16.10.2017 23:00:00 16,4 14,6 18 10 - - SSE 1018,5 0
16.10.2017 22:00:00 16,1 14,5 18 10 - - SE 1018,6 0
16.10.2017 21:00:00 16,7 15,3 22 12 - - SSE 1019,0 0
16.10.2017 20:00:00 16,3 14,7 18 10 - - SE 1019,5 0
16.10.2017 19:00:00 15,8 14,3 14 8 - - SE 1019,6 0
16.10.2017 18:00:00 14,3 13,3 18 10 - - E 1019,5 0
16.10.2017 17:00:00 14,5 13,4 14 8 - - E 1019,7 6
16.10.2017 16:00:00 14,7 13,2 14 8 - - ENE 1019,8 60
16.10.2017 15:00:00 17,0 13,9 4 2 - - N 1020,0 60
16.10.2017 14:00:00 16,0 12,8 7 4 - - W 1020,3 30
16.10.2017 13:00:00 14,8 13,3 11 6 - - W 1020,5 0
16.10.2017 12:00:00 14,5 13,1 22 12 - - WSW 1020,5 0
16.10.2017 11:00:00 14,1 12,8 25 14 - - WSW 1019,7 0
16.10.2017 10:00:00 14,3 12,6 25 14 - - SW 1019,2 0
16.10.2017 09:00:00 14,0 12,2 25 14 - - SW 1018,9 0
16.10.2017 08:00:00 14,0 12,0 29 16 - - SW 1018,2 0
16.10.2017 07:00:00 14,4 12,0 25 14 - - SW 1018,3 0
16.10.2017 06:00:00 14,7 12,0 25 14 - - SSW 1018,2 0
16.10.2017 05:00:00 15,0 12,1 29 16 - - SW 1018,0 0
16.10.2017 04:00:00 15,4 12,2 29 16 - - SSW 1018,1 0
16.10.2017 03:00:00 16,1 12,4 29 16 - - SSW 1018,4 0
16.10.2017 02:00:00 16,2 12,6 29 16 - - SSW 1018,7 0
16.10.2017 01:00:00 16,5 12,6 29 16 - - SSW 1018,9 0

tt = Température de l'air
td = dewpoint
ff = Vitesse du vent
fx = gusts
dd = Direction du vent
ppp = reduced air pressure
sd = Ensoleillement

stations d'obs. à proximité